createdAt,value
2018-05-02T00:00:09.061Z,6.26
2018-05-02T00:02:36.503Z,6.19
2018-05-02T00:05:03.915Z,6.32
2018-05-02T00:07:31.355Z,6.16
2018-05-02T00:09:58.758Z,6.20
2018-05-02T00:12:26.194Z,6.22
2018-05-02T00:14:53.601Z,5.99
2018-05-02T00:17:21.042Z,6.09
2018-05-02T00:19:48.458Z,6.12
2018-05-02T00:22:15.890Z,6.03
2018-05-02T00:24:43.302Z,6.01
2018-05-02T00:27:10.742Z,6.10
2018-05-02T00:29:38.150Z,5.98
2018-05-02T00:32:05.594Z,5.95
2018-05-02T00:34:33.005Z,5.84
2018-05-02T00:37:00.453Z,5.81
2018-05-02T00:39:27.866Z,5.77
2018-05-02T00:41:55.283Z,5.88
2018-05-02T00:44:22.713Z,5.86
2018-05-02T00:46:51.041Z,5.77
2018-05-02T00:49:18.484Z,5.75
2018-05-02T00:51:45.891Z,5.83
2018-05-02T00:54:13.338Z,5.78
2018-05-02T00:56:40.753Z,5.68
2018-05-02T00:59:08.187Z,5.81
2018-05-02T01:01:35.594Z,5.77
2018-05-02T01:04:03.034Z,5.89
2018-05-02T01:06:30.442Z,5.96
2018-05-02T01:08:57.873Z,6.12
2018-05-02T01:11:25.286Z,6.14
2018-05-02T01:13:52.729Z,5.97
2018-05-02T01:16:20.133Z,5.92
2018-05-02T01:18:47.562Z,5.96
2018-05-02T01:21:14.971Z,5.91
2018-05-02T01:23:42.427Z,5.92
2018-05-02T01:26:09.829Z,5.88
2018-05-02T01:28:37.236Z,6.03
2018-05-02T01:31:04.675Z,5.96
2018-05-02T01:33:32.081Z,5.77
2018-05-02T01:35:59.517Z,5.58
2018-05-02T01:38:26.929Z,5.56
2018-05-02T01:40:54.358Z,5.63
2018-05-02T01:43:21.774Z,5.73
2018-05-02T01:45:49.210Z,5.65
2018-05-02T01:48:16.614Z,5.46
2018-05-02T01:50:44.049Z,5.30
2018-05-02T01:53:11.461Z,5.20
2018-05-02T01:55:38.898Z,5.25
2018-05-02T01:58:06.309Z,5.37
2018-05-02T02:00:33.749Z,5.38
2018-05-02T02:03:01.162Z,5.72
2018-05-02T02:05:28.606Z,5.48
2018-05-02T02:07:56.005Z,5.53
2018-05-02T02:10:23.459Z,5.68
2018-05-02T02:12:50.865Z,5.69
2018-05-02T02:15:18.274Z,5.76
2018-05-02T02:17:45.713Z,5.79
2018-05-02T02:20:13.121Z,5.59
2018-05-02T02:22:40.553Z,5.61
2018-05-02T02:25:07.962Z,5.38
2018-05-02T02:27:35.406Z,5.30
2018-05-02T02:30:02.817Z,5.23
2018-05-02T02:32:30.258Z,5.18
2018-05-02T02:34:57.685Z,5.14
2018-05-02T02:37:25.130Z,5.11
2018-05-02T02:39:52.529Z,5.22
2018-05-02T02:42:19.967Z,5.18
2018-05-02T02:44:47.385Z,5.22
2018-05-02T02:47:14.819Z,5.31
2018-05-02T02:49:42.229Z,5.45
2018-05-02T02:52:09.659Z,5.40
2018-05-02T02:54:37.072Z,5.44
2018-05-02T02:57:04.510Z,5.27
2018-05-02T02:59:31.917Z,5.25
2018-05-02T03:01:59.357Z,5.25
2018-05-02T03:04:26.764Z,5.23
2018-05-02T03:06:54.194Z,5.26
2018-05-02T03:09:21.601Z,5.22
2018-05-02T03:11:49.037Z,5.35
2018-05-02T03:14:16.451Z,5.36
2018-05-02T03:16:43.926Z,5.83
2018-05-02T03:19:11.337Z,5.77
2018-05-02T03:21:38.750Z,5.83
2018-05-02T03:24:06.186Z,5.57
2018-05-02T03:26:33.597Z,5.49
2018-05-02T03:29:01.042Z,5.40
2018-05-02T03:31:28.460Z,5.33
2018-05-02T03:33:55.889Z,5.32
2018-05-02T03:36:23.298Z,5.28
2018-05-02T03:38:50.726Z,5.28
2018-05-02T03:41:18.129Z,5.18
2018-05-02T03:43:45.561Z,5.25
2018-05-02T03:46:12.974Z,5.42
2018-05-02T03:48:40.416Z,5.44
2018-05-02T03:51:07.826Z,5.61
2018-05-02T03:53:35.262Z,5.49
2018-05-02T03:56:02.676Z,5.51
2018-05-02T03:58:30.106Z,5.64
2018-05-02T04:01:09.256Z,5.56
2018-05-02T04:03:48.309Z,5.43
2018-05-02T04:06:22.091Z,5.39
2018-05-02T04:08:49.526Z,5.50
2018-05-02T04:11:16.930Z,5.53
2018-05-02T04:13:44.391Z,5.65
2018-05-02T04:16:11.797Z,5.63
2018-05-02T04:18:39.244Z,5.56
2018-05-02T04:21:06.645Z,5.66
2018-05-02T04:23:34.062Z,5.77
2018-05-02T04:26:01.504Z,5.87
2018-05-02T04:28:28.914Z,6.02
2018-05-02T04:30:56.350Z,6.12
2018-05-02T04:33:23.762Z,6.22
2018-05-02T04:35:51.210Z,6.38
2018-05-02T04:38:18.615Z,6.53
2018-05-02T04:40:46.054Z,6.60
2018-05-02T04:43:13.462Z,6.48
2018-05-02T04:45:40.903Z,6.68
2018-05-02T04:48:08.317Z,6.70
2018-05-02T04:50:35.761Z,6.73
2018-05-02T04:53:03.179Z,6.79
2018-05-02T04:55:30.609Z,6.78
2018-05-02T04:57:58.022Z,6.88
2018-05-02T05:00:25.437Z,6.88
2018-05-02T05:02:52.870Z,6.90
2018-05-02T05:05:20.290Z,7.05
2018-05-02T05:07:47.729Z,7.11
2018-05-02T05:10:15.141Z,7.29
2018-05-02T05:12:42.586Z,7.50
2018-05-02T05:15:10.003Z,8.00
2018-05-02T05:17:37.446Z,8.67
2018-05-02T05:20:04.871Z,8.51
2018-05-02T05:22:32.319Z,8.13
2018-05-02T05:24:59.721Z,7.84
2018-05-02T05:27:27.169Z,7.72
2018-05-02T05:29:54.593Z,7.80
2018-05-02T05:32:22.039Z,7.77
2018-05-02T05:34:49.445Z,8.12
2018-05-02T05:37:17.057Z,8.09
2018-05-02T05:39:44.482Z,8.28
2018-05-02T05:42:11.898Z,8.44
2018-05-02T05:44:40.262Z,8.61
2018-05-02T05:47:07.681Z,9.04
2018-05-02T05:49:35.115Z,9.43
2018-05-02T05:52:02.538Z,9.57
2018-05-02T05:54:30.086Z,9.51
2018-05-02T05:56:57.398Z,9.57
2018-05-02T05:59:24.859Z,9.34
2018-05-02T06:01:52.262Z,9.10
2018-05-02T06:04:19.706Z,9.14
2018-05-02T06:06:47.181Z,9.31
2018-05-02T06:09:14.565Z,9.54
2018-05-02T06:11:41.975Z,9.91
2018-05-02T06:14:09.417Z,10.14
2018-05-02T06:16:36.830Z,10.19
2018-05-02T06:19:04.263Z,10.18
2018-05-02T06:21:31.673Z,10.43
2018-05-02T06:24:00.014Z,10.24
2018-05-02T06:26:27.433Z,10.47
2018-05-02T06:28:54.891Z,10.36
2018-05-02T06:31:23.215Z,10.30
2018-05-02T06:33:50.630Z,10.02
2018-05-02T06:36:18.071Z,10.40
2018-05-02T06:38:45.479Z,10.34
2018-05-02T06:41:13.834Z,10.28
2018-05-02T06:43:41.246Z,10.22
2018-05-02T06:46:08.684Z,10.53
2018-05-02T06:48:36.102Z,10.83
2018-05-02T06:51:03.544Z,11.12
2018-05-02T06:53:30.954Z,11.16
2018-05-02T06:55:58.401Z,11.22
2018-05-02T06:58:26.729Z,11.38
2018-05-02T07:00:54.179Z,11.23
2018-05-02T07:03:21.586Z,11.14
2018-05-02T07:05:49.035Z,11.02
2018-05-02T07:08:16.443Z,11.45
2018-05-02T07:10:43.862Z,11.44
2018-05-02T07:13:11.335Z,11.69
2018-05-02T07:15:38.745Z,12.00
2018-05-02T07:18:06.190Z,11.46
2018-05-02T07:20:33.593Z,11.79
2018-05-02T07:23:01.031Z,12.17
2018-05-02T07:25:28.450Z,12.13
2018-05-02T07:27:55.890Z,11.96
2018-05-02T07:30:23.298Z,11.82
2018-05-02T07:32:50.762Z,11.82
2018-05-02T07:35:18.154Z,11.97
2018-05-02T07:37:45.594Z,12.19
2018-05-02T07:40:12.998Z,12.44
2018-05-02T07:42:40.434Z,12.65
2018-05-02T07:45:07.861Z,12.82
2018-05-02T07:47:35.301Z,12.71
2018-05-02T07:50:02.731Z,13.00
2018-05-02T07:52:30.142Z,12.89
2018-05-02T07:54:57.583Z,12.99
2018-05-02T07:57:25.000Z,13.00
2018-05-02T07:59:52.440Z,13.33
2018-05-02T08:02:19.850Z,13.66
2018-05-02T08:04:47.298Z,13.41
2018-05-02T08:07:14.710Z,13.54
2018-05-02T08:09:42.150Z,13.31
2018-05-02T08:12:09.560Z,13.45
2018-05-02T08:14:37.002Z,13.86
2018-05-02T08:17:04.415Z,13.76
2018-05-02T08:19:31.849Z,13.47
2018-05-02T08:21:59.313Z,14.06
2018-05-02T08:24:26.698Z,13.81
2018-05-02T08:26:54.110Z,13.87
2018-05-02T08:29:21.550Z,14.07
2018-05-02T08:31:48.966Z,13.91
2018-05-02T08:34:16.426Z,13.99
2018-05-02T08:36:43.833Z,14.23
2018-05-02T08:39:11.246Z,14.08
2018-05-02T08:41:38.687Z,14.34
2018-05-02T08:44:07.022Z,14.31
2018-05-02T08:46:34.458Z,14.59
2018-05-02T08:49:01.893Z,14.60
2018-05-02T08:51:29.322Z,14.49
2018-05-02T08:53:56.765Z,14.82
2018-05-02T08:56:24.205Z,14.29
2018-05-02T08:58:51.614Z,14.67
2018-05-02T09:01:19.047Z,14.83
2018-05-02T09:03:46.499Z,14.79
2018-05-02T09:06:13.899Z,14.79
2018-05-02T09:08:41.305Z,14.73
2018-05-02T09:11:08.738Z,14.53
2018-05-02T09:13:36.145Z,14.68
2018-05-02T09:16:03.581Z,14.86
2018-05-02T09:18:30.999Z,15.06
2018-05-02T09:20:58.435Z,15.19
2018-05-02T09:23:25.857Z,15.05
2018-05-02T09:25:53.266Z,15.09
2018-05-02T09:28:20.715Z,15.40
2018-05-02T09:30:48.138Z,15.00
2018-05-02T09:33:15.590Z,15.25
2018-05-02T09:35:43.042Z,15.62
2018-05-02T09:38:10.454Z,16.04
2018-05-02T09:40:37.864Z,16.06
2018-05-02T09:43:05.322Z,15.87
2018-05-02T09:45:32.735Z,15.96
2018-05-02T09:48:00.174Z,16.15
2018-05-02T09:50:27.588Z,15.95
2018-05-02T09:52:55.017Z,16.25
2018-05-02T09:55:22.429Z,16.35
2018-05-02T09:57:49.873Z,16.18
2018-05-02T10:00:17.285Z,15.82
2018-05-02T10:02:44.738Z,15.56
2018-05-02T10:05:12.202Z,16.19
2018-05-02T10:07:39.658Z,15.83
2018-05-02T10:10:07.073Z,16.22
2018-05-02T10:12:34.492Z,16.21
2018-05-02T10:15:01.927Z,16.63
2018-05-02T10:17:29.342Z,16.86
2018-05-02T10:19:56.793Z,16.83
2018-05-02T10:22:24.209Z,16.68
2018-05-02T10:24:51.703Z,16.41
2018-05-02T10:27:19.079Z,16.38
2018-05-02T10:29:46.536Z,16.95
2018-05-02T10:32:13.983Z,17.10
2018-05-02T10:34:41.446Z,15.89
2018-05-02T10:37:08.857Z,16.24
2018-05-02T10:39:36.310Z,16.72
2018-05-02T10:42:03.765Z,16.18
2018-05-02T10:44:31.198Z,16.22
2018-05-02T10:46:58.618Z,16.64
2018-05-02T10:49:26.043Z,16.84
2018-05-02T10:51:53.489Z,16.91
2018-05-02T10:54:20.907Z,16.80
2018-05-02T10:56:48.341Z,16.74
2018-05-02T10:59:15.798Z,17.01
2018-05-02T11:01:43.237Z,16.50
2018-05-02T11:04:10.700Z,17.04
2018-05-02T11:06:38.155Z,17.61
2018-05-02T11:09:05.577Z,17.74
2018-05-02T11:11:33.023Z,17.36
2018-05-02T11:14:00.434Z,17.62
2018-05-02T11:16:27.871Z,17.93
2018-05-02T11:18:55.295Z,18.13
2018-05-02T11:21:22.849Z,18.13
2018-05-02T11:23:50.270Z,18.32
2018-05-02T11:26:17.686Z,17.88
2018-05-02T11:28:45.128Z,17.62
2018-05-02T11:31:12.540Z,17.90
2018-05-02T11:33:39.990Z,17.38
2018-05-02T11:36:07.398Z,17.80
2018-05-02T11:38:34.853Z,17.48
2018-05-02T11:41:02.265Z,17.28
2018-05-02T11:43:29.722Z,17.39
2018-05-02T11:45:57.153Z,17.61
2018-05-02T11:48:24.595Z,17.11
2018-05-02T11:50:52.016Z,16.80
2018-05-02T11:53:19.445Z,17.36
2018-05-02T11:55:46.866Z,18.16
2018-05-02T11:58:14.307Z,18.45
2018-05-02T12:00:41.718Z,18.84
2018-05-02T12:03:09.166Z,18.51
2018-05-02T12:05:36.590Z,18.13
2018-05-02T12:08:04.054Z,18.22
2018-05-02T12:10:31.552Z,18.05
2018-05-02T12:12:58.901Z,17.92
2018-05-02T12:15:26.354Z,17.78
2018-05-02T12:17:53.776Z,18.23
2018-05-02T12:20:21.219Z,17.99
2018-05-02T12:22:48.622Z,18.12
2018-05-02T12:25:16.069Z,17.32
2018-05-02T12:27:43.518Z,17.88
2018-05-02T12:30:10.940Z,18.05
2018-05-02T12:32:38.350Z,18.61
2018-05-02T12:35:05.793Z,17.88
2018-05-02T12:37:33.206Z,17.69
2018-05-02T12:40:00.647Z,17.47
2018-05-02T12:42:28.078Z,18.08
2018-05-02T12:44:55.557Z,18.50
2018-05-02T12:47:22.978Z,18.29
2018-05-02T12:49:50.418Z,18.09
2018-05-02T12:52:17.831Z,18.54
2018-05-02T12:54:45.274Z,18.29
2018-05-02T12:57:12.695Z,18.72
2018-05-02T12:59:40.138Z,18.56
2018-05-02T13:02:07.557Z,18.67
2018-05-02T13:04:34.978Z,19.13
2018-05-02T13:07:02.411Z,18.77
2018-05-02T13:09:29.830Z,18.92
2018-05-02T13:11:57.270Z,19.49
2018-05-02T13:14:24.681Z,18.82
2018-05-02T13:16:52.122Z,18.85
2018-05-02T13:19:19.538Z,19.17
2018-05-02T13:21:46.983Z,19.34
2018-05-02T13:24:14.409Z,19.32
2018-05-02T13:26:41.846Z,19.31
2018-05-02T13:29:09.262Z,19.18
2018-05-02T13:31:36.697Z,18.92
2018-05-02T13:34:04.112Z,19.46
2018-05-02T13:36:31.558Z,20.23
2018-05-02T13:38:58.977Z,20.20
2018-05-02T13:41:26.418Z,20.57
2018-05-02T13:43:53.859Z,20.36
2018-05-02T13:46:21.267Z,21.32
2018-05-02T13:48:48.710Z,20.41
2018-05-02T13:51:16.122Z,20.97
2018-05-02T13:53:43.558Z,21.04
2018-05-02T13:56:10.974Z,21.28
2018-05-02T13:58:38.418Z,21.80
2018-05-02T14:01:05.838Z,22.07
2018-05-02T14:03:33.278Z,22.55
2018-05-02T14:06:00.694Z,24.03
2018-05-02T14:08:28.158Z,24.52
2018-05-02T14:10:55.558Z,23.56
2018-05-02T14:13:22.989Z,23.94
2018-05-02T14:15:50.399Z,24.36
2018-05-02T14:18:17.834Z,24.56
2018-05-02T14:20:45.241Z,24.72
2018-05-02T14:23:12.696Z,25.13
2018-05-02T14:25:40.106Z,24.99
2018-05-02T14:28:07.554Z,24.89
2018-05-02T14:30:34.978Z,25.41
2018-05-02T14:33:02.422Z,24.08
2018-05-02T14:35:29.833Z,24.01
2018-05-02T14:37:58.234Z,25.09
2018-05-02T14:40:25.665Z,24.28
2018-05-02T14:42:53.084Z,24.07
2018-05-02T14:45:20.525Z,25.14
2018-05-02T14:47:47.938Z,25.86
2018-05-02T14:50:15.398Z,26.75
2018-05-02T14:52:42.816Z,28.03
2018-05-02T14:55:10.250Z,29.94
2018-05-02T14:57:37.661Z,31.06
2018-05-02T15:00:05.109Z,29.50
2018-05-02T15:02:32.522Z,30.62
2018-05-02T15:04:59.958Z,30.67
2018-05-02T15:07:27.405Z,30.28
2018-05-02T15:09:54.854Z,32.10
2018-05-02T15:12:24.500Z,29.95
2018-05-02T15:14:52.198Z,31.32
2018-05-02T15:17:19.626Z,30.87
2018-05-02T15:19:47.058Z,34.41
2018-05-02T15:22:14.478Z,33.06
2018-05-02T15:24:43.247Z,32.20
2018-05-02T15:27:10.708Z,33.77
2018-05-02T15:29:38.114Z,35.81
2018-05-02T15:32:05.574Z,36.18
2018-05-02T15:34:33.003Z,34.65
2018-05-02T15:37:00.431Z,34.22
2018-05-02T15:39:27.842Z,36.24
2018-05-02T15:41:55.279Z,38.43
2018-05-02T15:44:22.696Z,33.70
2018-05-02T15:46:50.133Z,33.53
2018-05-02T15:49:29.618Z,33.32
2018-05-02T15:51:57.068Z,34.37
2018-05-02T15:54:25.601Z,33.44
2018-05-02T15:56:53.047Z,34.95
2018-05-02T15:59:33.670Z,36.30
2018-05-02T16:04:51.766Z,33.35
2018-05-02T16:07:19.299Z,33.83
2018-05-02T16:09:46.710Z,35.18
2018-05-02T16:12:14.150Z,34.35
2018-05-02T16:14:41.565Z,35.49
2018-05-02T16:17:09.032Z,35.88
2018-05-02T16:19:36.482Z,34.64
2018-05-02T16:22:03.932Z,33.30
2018-05-02T16:24:31.342Z,31.48
2018-05-02T16:26:58.790Z,30.42
2018-05-02T16:29:26.212Z,31.00
2018-05-02T16:31:53.669Z,32.70
2018-05-02T16:34:22.023Z,34.39
2018-05-02T16:36:49.449Z,29.56
2018-05-02T16:39:16.887Z,27.55
2018-05-02T16:41:44.306Z,28.34
2018-05-02T16:44:11.798Z,29.27
2018-05-02T16:46:39.211Z,29.02
2018-05-02T16:49:06.667Z,29.15
2018-05-02T16:51:34.073Z,30.22
2018-05-02T16:54:01.520Z,31.58
2018-05-02T16:56:28.978Z,31.73
2018-05-02T16:58:56.388Z,32.79
2018-05-02T17:01:24.769Z,26.53
2018-05-02T17:03:53.183Z,22.56
2018-05-02T17:06:20.606Z,20.98
2018-05-02T17:08:48.065Z,19.85
2018-05-02T17:11:15.559Z,19.08
2018-05-02T17:13:43.942Z,19.05
2018-05-02T17:16:11.354Z,18.72
2018-05-02T17:18:38.761Z,18.43
2018-05-02T17:21:07.122Z,18.92
2018-05-02T17:23:34.533Z,18.87
2018-05-02T17:26:01.974Z,18.74
2018-05-02T17:28:30.301Z,18.55
2018-05-02T17:30:57.738Z,18.43
2018-05-02T17:33:25.145Z,18.29
2018-05-02T17:35:52.579Z,18.14
2018-05-02T17:38:19.992Z,17.95
2018-05-02T17:40:47.424Z,17.97
2018-05-02T17:43:14.829Z,17.56
2018-05-02T17:45:42.266Z,17.38
2018-05-02T17:48:09.678Z,17.32
2018-05-02T17:50:37.109Z,17.12
2018-05-02T17:53:04.522Z,17.22
2018-05-02T17:55:31.932Z,17.13
2018-05-02T17:57:59.394Z,16.94
2018-05-02T18:00:26.801Z,16.91
2018-05-02T18:02:54.238Z,16.67
2018-05-02T18:05:21.645Z,16.81
2018-05-02T18:07:49.081Z,16.68
2018-05-02T18:10:16.485Z,16.58
2018-05-02T18:12:43.917Z,16.64
2018-05-02T18:15:11.321Z,16.62
2018-05-02T18:17:38.757Z,16.60
2018-05-02T18:20:06.175Z,16.55
2018-05-02T18:22:33.606Z,16.61
2018-05-02T18:25:01.912Z,16.60
2018-05-02T18:27:29.354Z,16.45
2018-05-02T18:29:56.762Z,16.17
2018-05-02T18:32:24.178Z,16.03
2018-05-02T18:34:51.617Z,16.06
2018-05-02T18:37:19.033Z,15.87
2018-05-02T18:39:46.471Z,15.81
2018-05-02T18:42:13.881Z,15.75
2018-05-02T18:44:41.317Z,15.67
2018-05-02T18:47:08.728Z,15.61
2018-05-02T18:49:36.175Z,15.47
2018-05-02T18:52:03.595Z,15.25
2018-05-02T18:54:31.029Z,15.11
2018-05-02T18:56:58.434Z,15.06
2018-05-02T18:59:25.866Z,14.88
2018-05-02T19:01:53.282Z,14.92
2018-05-02T19:04:21.629Z,14.93
2018-05-02T19:06:49.078Z,14.83
2018-05-02T19:09:17.481Z,14.63
2018-05-02T19:11:44.900Z,14.64
2018-05-02T19:14:13.309Z,14.50
2018-05-02T19:16:41.661Z,14.33
2018-05-02T19:19:14.573Z,14.33
2018-05-02T19:21:41.993Z,14.20
2018-05-02T19:24:09.429Z,14.14
2018-05-02T19:26:36.842Z,14.24
2018-05-02T19:29:05.221Z,14.21
2018-05-02T19:31:43.874Z,14.13
2018-05-02T19:34:11.313Z,14.14
2018-05-02T19:36:42.509Z,14.14
2018-05-02T19:39:09.972Z,14.08
2018-05-02T19:41:42.862Z,14.05
2018-05-02T19:44:10.358Z,14.09
2018-05-02T19:46:37.782Z,14.20
2018-05-02T19:49:05.210Z,14.15
2018-05-02T19:51:38.262Z,14.03
2018-05-02T19:54:05.673Z,14.05
2018-05-02T19:56:33.113Z,13.98
2018-05-02T19:59:00.524Z,13.90
2018-05-02T20:01:34.365Z,13.93
2018-05-02T20:04:01.785Z,14.00
2018-05-02T20:06:29.237Z,13.89
2018-05-02T20:09:02.135Z,13.86
2018-05-02T20:11:35.109Z,13.77
2018-05-02T20:14:02.523Z,13.66
2018-05-02T20:16:29.965Z,13.69
2018-05-02T20:18:57.377Z,13.74
2018-05-02T20:21:24.828Z,13.66
2018-05-02T20:23:52.241Z,13.76
2018-05-02T20:26:19.709Z,13.63
2018-05-02T20:28:47.140Z,13.48
2018-05-02T20:31:14.559Z,13.45
2018-05-02T20:33:42.002Z,13.54
2018-05-02T20:36:09.429Z,13.54
2018-05-02T20:38:36.881Z,13.46
2018-05-02T20:41:04.294Z,13.29
2018-05-02T20:43:31.733Z,13.39
2018-05-02T20:45:59.146Z,13.26
2018-05-02T20:48:26.594Z,13.26
2018-05-02T20:50:54.005Z,13.24
2018-05-02T20:53:21.452Z,13.29
2018-05-02T20:55:48.879Z,13.20
2018-05-02T20:58:16.322Z,13.23
2018-05-02T21:00:45.638Z,13.24
2018-05-02T21:03:13.086Z,13.22
2018-05-02T21:05:40.527Z,13.09
2018-05-02T21:08:08.869Z,13.08
2018-05-02T21:10:37.182Z,13.18
2018-05-02T21:13:04.596Z,13.11
2018-05-02T21:15:32.030Z,13.12
2018-05-02T21:18:00.365Z,13.10
2018-05-02T21:20:27.805Z,13.07
2018-05-02T21:22:56.155Z,12.98
2018-05-02T21:25:25.510Z,12.93
2018-05-02T21:27:52.928Z,12.90
2018-05-02T21:30:20.370Z,12.95
2018-05-02T21:32:48.688Z,12.92
2018-05-02T21:35:16.129Z,12.78
2018-05-02T21:37:43.547Z,12.80
2018-05-02T21:40:11.009Z,12.64
2018-05-02T21:42:39.338Z,12.57
2018-05-02T21:45:07.706Z,12.58
2018-05-02T21:47:35.114Z,12.56
2018-05-02T21:50:02.537Z,12.56
2018-05-02T21:52:29.996Z,12.60
2018-05-02T21:54:57.412Z,12.58
2018-05-02T21:57:24.881Z,12.60
2018-05-02T21:59:52.314Z,12.66
2018-05-02T22:02:19.745Z,12.66
2018-05-02T22:04:47.158Z,12.66
2018-05-02T22:07:15.530Z,12.58
2018-05-02T22:09:42.877Z,12.57
2018-05-02T22:12:10.318Z,12.48
2018-05-02T22:14:37.739Z,12.35
2018-05-02T22:17:05.173Z,12.31
2018-05-02T22:19:32.586Z,12.21
2018-05-02T22:22:00.030Z,12.24
2018-05-02T22:24:27.441Z,12.25
2018-05-02T22:26:54.889Z,12.17
2018-05-02T22:29:22.299Z,12.05
2018-05-02T22:31:49.713Z,12.10
2018-05-02T22:34:17.170Z,12.09
2018-05-02T22:36:44.597Z,12.06
2018-05-02T22:39:12.938Z,12.09
2018-05-02T22:41:40.370Z,12.18
2018-05-02T22:44:07.837Z,11.96
2018-05-02T22:46:36.149Z,12.03
2018-05-02T22:49:03.590Z,11.89
2018-05-02T22:51:31.013Z,11.96
2018-05-02T22:53:58.461Z,11.89
2018-05-02T22:56:26.842Z,11.93
2018-05-02T22:58:54.333Z,11.94
2018-05-02T23:01:22.667Z,11.83
2018-05-02T23:03:50.111Z,11.87
2018-05-02T23:06:18.422Z,11.88
2018-05-02T23:08:45.865Z,11.90
2018-05-02T23:11:13.278Z,11.78
2018-05-02T23:13:40.698Z,11.70
2018-05-02T23:16:08.129Z,11.71
2018-05-02T23:18:35.549Z,11.66
2018-05-02T23:21:02.992Z,11.67
2018-05-02T23:23:30.401Z,11.70
2018-05-02T23:25:57.841Z,11.71
2018-05-02T23:28:25.257Z,11.66
2018-05-02T23:30:52.710Z,11.73
2018-05-02T23:33:20.131Z,11.71
2018-05-02T23:35:47.579Z,11.71
2018-05-02T23:38:14.996Z,11.80
2018-05-02T23:40:42.433Z,11.67
2018-05-02T23:43:09.854Z,11.59
2018-05-02T23:45:37.297Z,11.62
2018-05-02T23:48:04.714Z,11.52
2018-05-02T23:50:33.057Z,11.42
2018-05-02T23:53:00.468Z,11.46
2018-05-02T23:55:27.905Z,11.49
2018-05-02T23:57:55.318Z,11.51
